createdAt,value
2022-11-24T00:00:51.165Z,8.10
2022-11-24T00:01:54.241Z,8.10
2022-11-24T00:02:56.371Z,8.10
2022-11-24T00:04:00.728Z,8.10
2022-11-24T00:05:02.714Z,8.00
2022-11-24T00:06:08.755Z,8.10
2022-11-24T00:07:11.680Z,8.00
2022-11-24T00:08:13.671Z,8.10
2022-11-24T00:09:16.737Z,8.10
2022-11-24T00:10:18.948Z,8.10
2022-11-24T00:11:24.206Z,8.10
2022-11-24T00:12:26.219Z,8.10
2022-11-24T00:13:29.274Z,8.10
2022-11-24T00:14:31.576Z,8.10
2022-11-24T00:15:34.809Z,8.20
2022-11-24T00:16:38.418Z,8.20
2022-11-24T00:17:41.456Z,8.10
2022-11-24T00:18:45.213Z,8.10
2022-11-24T00:19:48.131Z,8.10
2022-11-24T00:20:52.386Z,8.10
2022-11-24T00:21:56.765Z,8.10
2022-11-24T00:22:58.742Z,8.10
2022-11-24T00:24:02.201Z,8.00
2022-11-24T00:25:04.876Z,8.10
2022-11-24T00:26:10.487Z,8.10
2022-11-24T00:27:13.556Z,8.10
2022-11-24T00:28:15.474Z,8.10
2022-11-24T00:29:18.512Z,8.10
2022-11-24T00:30:20.497Z,8.20
2022-11-24T00:31:25.765Z,8.10
2022-11-24T00:32:28.348Z,8.10
2022-11-24T00:33:31.283Z,8.10
2022-11-24T00:34:33.589Z,8.20
2022-11-24T00:35:36.649Z,8.10
2022-11-24T00:36:40.379Z,8.10
2022-11-24T00:37:43.784Z,8.10
2022-11-24T00:38:47.372Z,8.10
2022-11-24T00:39:49.347Z,8.10
2022-11-24T00:40:52.928Z,8.00
2022-11-24T00:41:55.843Z,8.10
2022-11-24T00:42:57.840Z,8.10
2022-11-24T00:44:01.187Z,8.10
2022-11-24T00:45:13.178Z,8.10
2022-11-24T00:46:16.832Z,8.10
2022-11-24T00:47:18.809Z,8.10
2022-11-24T00:48:22.016Z,8.00
2022-11-24T00:49:23.924Z,8.10
2022-11-24T00:50:27.021Z,8.10
2022-11-24T00:51:30.220Z,8.20
2022-11-24T00:52:33.269Z,8.20
2022-11-24T00:53:36.721Z,8.10
2022-11-24T00:54:39.610Z,8.20
2022-11-24T00:55:41.529Z,8.10
2022-11-24T00:56:44.470Z,8.10
2022-11-24T00:57:46.376Z,8.10
2022-11-24T00:58:50.475Z,8.10
2022-11-24T00:59:52.418Z,8.10
2022-11-24T01:00:56.459Z,8.10
2022-11-24T01:01:58.486Z,8.20
2022-11-24T01:03:01.574Z,8.10
2022-11-24T01:04:05.389Z,8.10
2022-11-24T01:05:08.178Z,8.00
2022-11-24T01:06:14.171Z,8.00
2022-11-24T01:07:16.180Z,8.00
2022-11-24T01:08:19.291Z,8.10
2022-11-24T01:09:22.645Z,8.10
2022-11-24T01:10:25.636Z,8.20
2022-11-24T01:11:29.464Z,8.10
2022-11-24T01:12:32.444Z,8.20
2022-11-24T01:13:34.440Z,8.20
2022-11-24T01:14:37.601Z,8.10
2022-11-24T01:15:40.054Z,8.20
2022-11-24T01:16:43.286Z,8.20
2022-11-24T01:17:45.385Z,8.20
2022-11-24T01:18:48.939Z,8.20
2022-11-24T01:19:51.345Z,8.20
2022-11-24T01:20:54.252Z,8.20
2022-11-24T01:21:56.157Z,8.20
2022-11-24T01:22:59.501Z,8.20
2022-11-24T01:24:01.455Z,8.10
2022-11-24T01:25:06.620Z,8.20
2022-11-24T01:26:10.609Z,8.20
2022-11-24T01:27:13.645Z,8.20
2022-11-24T01:28:15.640Z,8.20
2022-11-24T01:29:18.586Z,8.20
2022-11-24T01:30:22.076Z,8.20
2022-11-24T01:31:26.616Z,8.20
2022-11-24T01:32:28.680Z,8.20
2022-11-24T01:33:31.779Z,8.20
2022-11-24T01:34:33.900Z,8.20
2022-11-24T01:35:37.868Z,8.20
2022-11-24T01:36:39.952Z,8.20
2022-11-24T01:37:42.913Z,8.20
2022-11-24T01:38:44.959Z,8.20
2022-11-24T01:39:47.960Z,8.20
2022-11-24T01:41:00.864Z,8.20
2022-11-24T01:42:03.767Z,8.10
2022-11-24T01:43:17.082Z,8.30
2022-11-24T01:44:25.736Z,8.20
2022-11-24T01:45:33.185Z,8.20
2022-11-24T01:46:42.911Z,8.20
2022-11-24T01:47:44.905Z,8.10
2022-11-24T01:48:52.751Z,8.20
2022-11-24T01:49:59.227Z,8.20
2022-11-24T01:51:09.089Z,8.20
2022-11-24T01:52:16.020Z,8.20
2022-11-24T01:53:17.995Z,8.20
2022-11-24T01:54:26.060Z,8.20
2022-11-24T01:55:31.455Z,8.20
2022-11-24T01:56:38.145Z,8.10
2022-11-24T01:57:44.464Z,8.10
2022-11-24T01:58:49.636Z,8.10
2022-11-24T01:59:54.554Z,8.10
2022-11-24T02:00:57.516Z,8.20
2022-11-24T02:01:59.717Z,8.20
2022-11-24T02:03:03.109Z,8.10
2022-11-24T02:04:09.972Z,8.10
2022-11-24T02:05:18.636Z,8.10
2022-11-24T02:06:24.997Z,8.00
2022-11-24T02:07:27.423Z,8.10
2022-11-24T02:08:36.175Z,8.10
2022-11-24T02:09:43.032Z,8.10
2022-11-24T02:10:47.262Z,8.10
2022-11-24T02:11:51.975Z,8.20
2022-11-24T02:12:57.577Z,8.30
2022-11-24T02:14:00.841Z,8.20
2022-11-24T02:15:02.947Z,8.20
2022-11-24T02:16:07.769Z,8.20
2022-11-24T02:17:09.864Z,8.20
2022-11-24T02:18:12.824Z,8.20
2022-11-24T02:19:22.710Z,8.20
2022-11-24T02:20:27.231Z,8.10
2022-11-24T02:21:29.264Z,8.10
2022-11-24T02:22:42.095Z,8.10
2022-11-24T02:23:53.856Z,8.00
2022-11-24T02:25:01.057Z,8.10
2022-11-24T02:26:09.706Z,8.10
2022-11-24T02:27:14.377Z,8.00
2022-11-24T02:28:19.280Z,8.10
2022-11-24T02:29:22.367Z,8.10
2022-11-24T02:30:24.592Z,8.10
2022-11-24T02:31:27.655Z,8.10
2022-11-24T02:32:31.322Z,8.10
2022-11-24T02:33:35.344Z,8.20
2022-11-24T02:34:37.529Z,8.20
2022-11-24T02:35:40.693Z,8.20
2022-11-24T02:36:42.654Z,8.30
2022-11-24T02:37:45.558Z,8.30
2022-11-24T02:38:47.522Z,8.30
2022-11-24T02:39:50.431Z,8.30
2022-11-24T02:40:52.353Z,8.30
2022-11-24T02:41:59.504Z,8.30
2022-11-24T02:43:09.377Z,8.40
2022-11-24T02:44:14.612Z,8.40
2022-11-24T02:45:17.253Z,8.40
2022-11-24T02:46:20.294Z,8.40
2022-11-24T02:47:22.297Z,8.30
2022-11-24T02:48:25.389Z,8.30
2022-11-24T02:49:27.312Z,8.30
2022-11-24T02:50:30.252Z,8.20
2022-11-24T02:51:34.332Z,8.30
2022-11-24T02:52:37.325Z,8.30
2022-11-24T02:53:39.367Z,8.30
2022-11-24T02:54:42.333Z,8.20
2022-11-24T02:55:44.341Z,8.30
2022-11-24T02:56:47.296Z,8.30
2022-11-24T02:57:49.272Z,8.30
2022-11-24T02:58:53.639Z,8.40
2022-11-24T02:59:55.689Z,8.40
2022-11-24T03:00:59.791Z,8.40
2022-11-24T03:02:01.946Z,8.40
2022-11-24T03:03:05.417Z,8.40
2022-11-24T03:04:07.380Z,8.30
2022-11-24T03:05:12.020Z,8.40
2022-11-24T03:06:13.976Z,8.40
2022-11-24T03:07:17.051Z,8.40
2022-11-24T03:08:19.388Z,8.40
2022-11-24T03:09:22.394Z,8.50
2022-11-24T03:10:24.604Z,8.40
2022-11-24T03:11:27.595Z,8.40
2022-11-24T03:12:29.588Z,8.40
2022-11-24T03:13:32.611Z,8.40
2022-11-24T03:14:36.262Z,8.40
2022-11-24T03:15:39.549Z,8.40
2022-11-24T03:16:41.556Z,8.50
2022-11-24T03:17:44.524Z,8.50
2022-11-24T03:18:48.134Z,8.50
2022-11-24T03:19:51.131Z,8.50
2022-11-24T03:20:53.301Z,8.50
2022-11-24T03:21:56.272Z,8.60
2022-11-24T03:22:58.301Z,8.50
2022-11-24T03:24:01.263Z,8.50
2022-11-24T03:25:03.657Z,8.50
2022-11-24T03:26:10.208Z,8.60
2022-11-24T03:27:12.219Z,8.50
2022-11-24T03:28:15.396Z,8.50
2022-11-24T03:29:17.645Z,8.50
2022-11-24T03:30:22.112Z,8.50
2022-11-24T03:31:24.784Z,8.50
2022-11-24T03:32:27.872Z,8.50
2022-11-24T03:33:30.028Z,8.60
2022-11-24T03:34:33.260Z,8.60
2022-11-24T03:35:35.311Z,8.60
2022-11-24T03:36:38.253Z,8.70
2022-11-24T03:37:40.192Z,8.70
2022-11-24T03:38:43.304Z,8.70
2022-11-24T03:39:45.279Z,8.70
2022-11-24T03:40:48.171Z,8.70
2022-11-24T03:41:51.364Z,8.70
2022-11-24T03:42:54.264Z,8.70
2022-11-24T03:43:56.283Z,8.70
2022-11-24T03:45:04.253Z,8.70
2022-11-24T03:46:21.317Z,8.60
2022-11-24T03:47:23.334Z,8.60
2022-11-24T03:48:26.425Z,8.60
2022-11-24T03:49:28.524Z,8.60
2022-11-24T03:50:31.507Z,8.60
2022-11-24T03:51:33.500Z,8.60
2022-11-24T03:52:36.455Z,8.60
2022-11-24T03:53:38.704Z,8.60
2022-11-24T03:54:42.304Z,8.60
2022-11-24T03:55:44.309Z,8.70
2022-11-24T03:56:47.465Z,8.70
2022-11-24T03:57:49.459Z,8.70
2022-11-24T03:58:52.392Z,8.60
2022-11-24T03:59:54.338Z,8.70
2022-11-24T04:00:57.653Z,8.70
2022-11-24T04:02:01.045Z,8.70
2022-11-24T04:03:04.131Z,8.70
2022-11-24T04:04:06.185Z,8.70
2022-11-24T04:05:09.629Z,8.70
2022-11-24T04:06:11.873Z,8.70
2022-11-24T04:07:14.821Z,8.80
2022-11-24T04:08:17.086Z,8.80
2022-11-24T04:09:20.040Z,8.70
2022-11-24T04:10:21.944Z,8.80
2022-11-24T04:11:43.500Z,8.80
2022-11-24T04:12:46.419Z,8.70
2022-11-24T04:13:48.428Z,8.70
2022-11-24T04:14:50.372Z,8.80
2022-11-24T04:15:54.199Z,8.80
2022-11-24T04:16:56.438Z,8.80
2022-11-24T04:18:00.727Z,8.80
2022-11-24T04:19:02.762Z,8.70
2022-11-24T04:20:06.809Z,8.70
2022-11-24T04:21:08.750Z,8.70
2022-11-24T04:22:11.872Z,8.70
2022-11-24T04:23:13.820Z,8.70
2022-11-24T04:24:16.732Z,8.70
2022-11-24T04:25:18.953Z,8.70
2022-11-24T04:26:22.009Z,8.70
2022-11-24T04:27:24.028Z,8.80
2022-11-24T04:28:27.030Z,8.80
2022-11-24T04:29:28.970Z,8.80
2022-11-24T04:30:32.017Z,8.80
2022-11-24T04:31:33.997Z,8.80
2022-11-24T04:32:37.047Z,8.80
2022-11-24T04:33:40.394Z,8.70
2022-11-24T04:34:43.758Z,8.70
2022-11-24T04:35:45.703Z,8.70
2022-11-24T04:36:48.612Z,8.70
2022-11-24T04:37:50.634Z,8.70
2022-11-24T04:39:23.377Z,8.70
2022-11-24T04:40:17.648Z,8.70
2022-11-24T04:41:19.618Z,8.70
2022-11-24T04:42:22.635Z,8.80
2022-11-24T04:43:24.577Z,8.70
2022-11-24T04:44:27.571Z,8.70
2022-11-24T04:45:29.506Z,8.70
2022-11-24T04:46:32.504Z,8.80
2022-11-24T04:47:34.974Z,8.80
2022-11-24T04:48:37.953Z,8.80
2022-11-24T04:49:41.277Z,8.80
2022-11-24T04:50:44.244Z,8.80
2022-11-24T04:51:46.448Z,8.70
2022-11-24T04:52:49.382Z,8.80
2022-11-24T04:53:51.381Z,8.80
2022-11-24T04:54:54.352Z,8.80
2022-11-24T04:55:56.276Z,8.70
2022-11-24T04:56:59.176Z,8.70
2022-11-24T04:58:02.455Z,8.70
2022-11-24T04:59:08.152Z,8.70
2022-11-24T05:00:12.952Z,8.80
2022-11-24T05:01:15.123Z,8.80
2022-11-24T05:02:18.348Z,8.80
2022-11-24T05:03:20.265Z,8.80
2022-11-24T05:04:23.282Z,8.80
2022-11-24T05:05:26.800Z,8.80
2022-11-24T05:06:29.903Z,8.70
2022-11-24T05:07:32.048Z,8.70
2022-11-24T05:08:35.045Z,8.80
2022-11-24T05:09:59.610Z,8.70
2022-11-24T05:11:05.573Z,8.80
2022-11-24T05:12:07.610Z,8.70
2022-11-24T05:13:12.597Z,8.70
2022-11-24T05:14:14.538Z,8.70
2022-11-24T05:15:17.607Z,8.70
2022-11-24T05:16:19.618Z,8.70
2022-11-24T05:17:22.617Z,8.70
2022-11-24T05:18:24.645Z,8.70
2022-11-24T05:19:31.241Z,8.70
2022-11-24T05:20:35.973Z,8.60
2022-11-24T05:21:38.967Z,8.60
2022-11-24T05:22:40.913Z,8.70
2022-11-24T05:23:43.816Z,8.70
2022-11-24T05:24:45.769Z,8.80
2022-11-24T05:25:48.719Z,8.70
2022-11-24T05:26:50.666Z,8.70
2022-11-24T05:27:53.599Z,8.70
2022-11-24T05:28:55.525Z,8.70
2022-11-24T05:29:58.448Z,8.80
2022-11-24T05:31:01.594Z,8.70
2022-11-24T05:32:04.947Z,8.70
2022-11-24T05:33:07.625Z,8.80
2022-11-24T05:34:10.570Z,8.80
2022-11-24T05:35:13.217Z,8.80
2022-11-24T05:36:31.418Z,8.80
2022-11-24T05:37:34.413Z,8.80
2022-11-24T05:38:36.347Z,8.80
2022-11-24T05:39:39.383Z,8.80
2022-11-24T05:40:41.834Z,8.70
2022-11-24T05:41:44.752Z,8.90
2022-11-24T05:42:48.227Z,8.80
2022-11-24T05:43:51.398Z,8.80
2022-11-24T05:44:53.828Z,8.80
2022-11-24T05:45:59.719Z,8.80
2022-11-24T05:47:01.677Z,8.80
2022-11-24T05:48:08.965Z,8.70
2022-11-24T05:49:11.524Z,8.70
2022-11-24T05:50:17.099Z,8.70
2022-11-24T05:51:20.462Z,8.70
2022-11-24T05:52:23.780Z,8.70
2022-11-24T05:53:26.976Z,8.80
2022-11-24T05:54:29.975Z,8.80
2022-11-24T05:55:33.280Z,8.80
2022-11-24T05:56:35.472Z,8.80
2022-11-24T05:57:38.640Z,8.80
2022-11-24T05:58:40.624Z,8.80
2022-11-24T05:59:43.529Z,8.70
2022-11-24T06:00:46.477Z,8.80
2022-11-24T06:01:48.505Z,8.70
2022-11-24T06:02:51.687Z,8.70
2022-11-24T06:04:00.783Z,8.70
2022-11-24T06:05:02.957Z,8.70
2022-11-24T06:06:06.245Z,8.70
2022-11-24T06:07:11.283Z,8.70
2022-11-24T06:08:14.497Z,8.70
2022-11-24T06:09:16.427Z,8.70
2022-11-24T06:10:21.436Z,8.70
2022-11-24T06:11:23.392Z,8.70
2022-11-24T06:12:26.397Z,8.70
2022-11-24T06:13:28.648Z,8.70
2022-11-24T06:14:31.992Z,8.60
2022-11-24T06:15:34.327Z,8.60
2022-11-24T06:16:37.483Z,8.60
2022-11-24T06:17:40.208Z,8.70
2022-11-24T06:18:43.331Z,8.70
2022-11-24T06:19:47.830Z,8.70
2022-11-24T06:21:09.728Z,8.60
2022-11-24T06:22:14.848Z,8.60
2022-11-24T06:23:16.787Z,8.60
2022-11-24T06:24:19.731Z,8.60
2022-11-24T06:25:21.695Z,8.60
2022-11-24T06:26:24.705Z,8.60
2022-11-24T06:27:26.769Z,8.60
2022-11-24T06:28:29.832Z,8.70
2022-11-24T06:29:31.812Z,8.80
2022-11-24T06:30:34.725Z,8.80
2022-11-24T06:31:36.841Z,8.80
2022-11-24T06:32:49.093Z,8.90
2022-11-24T06:33:53.293Z,8.80
2022-11-24T06:34:56.199Z,8.80
2022-11-24T06:36:01.577Z,8.80
2022-11-24T06:37:04.871Z,8.70
2022-11-24T06:38:08.507Z,8.70
2022-11-24T06:39:11.465Z,8.70
2022-11-24T06:40:13.516Z,8.70
2022-11-24T06:41:18.223Z,8.70
2022-11-24T06:42:21.563Z,8.70
2022-11-24T06:43:24.992Z,8.80
2022-11-24T06:44:28.090Z,8.80
2022-11-24T06:45:30.249Z,8.90
2022-11-24T06:46:33.251Z,8.80
2022-11-24T06:47:35.689Z,9.00
2022-11-24T06:48:38.728Z,8.90
2022-11-24T06:49:41.664Z,8.90
2022-11-24T06:50:43.743Z,9.00
2022-11-24T06:51:46.980Z,8.90
2022-11-24T06:52:49.231Z,8.90
2022-11-24T06:53:53.664Z,8.90
2022-11-24T06:54:55.683Z,8.90
2022-11-24T06:56:00.206Z,8.90
2022-11-24T06:57:02.237Z,8.80
2022-11-24T06:58:05.207Z,8.90
2022-11-24T06:59:07.123Z,8.90
2022-11-24T07:00:11.811Z,8.90
2022-11-24T07:01:15.560Z,8.90
2022-11-24T07:02:18.588Z,8.80
2022-11-24T07:03:20.680Z,8.90
2022-11-24T07:04:23.788Z,8.80
2022-11-24T07:05:25.796Z,8.90
2022-11-24T07:06:29.212Z,8.90
2022-11-24T07:07:32.197Z,8.90
2022-11-24T07:08:34.170Z,8.80
2022-11-24T07:09:38.445Z,8.90
2022-11-24T07:10:40.451Z,8.90
2022-11-24T07:11:43.595Z,8.90
2022-11-24T07:12:45.609Z,9.10
2022-11-24T07:13:49.116Z,9.00
2022-11-24T07:14:52.038Z,8.90
2022-11-24T07:15:53.976Z,8.90
2022-11-24T07:16:56.977Z,8.90
2022-11-24T07:17:59.037Z,9.00
2022-11-24T07:19:02.160Z,8.90
2022-11-24T07:20:05.002Z,9.00
2022-11-24T07:21:08.413Z,9.00
2022-11-24T07:22:11.504Z,9.00
2022-11-24T07:23:13.425Z,9.00
2022-11-24T07:24:16.429Z,9.00
2022-11-24T07:25:19.776Z,9.00
2022-11-24T07:26:23.566Z,9.10
2022-11-24T07:27:27.908Z,9.10
2022-11-24T07:28:30.575Z,9.10
2022-11-24T07:29:33.561Z,9.10
2022-11-24T07:30:35.531Z,9.10
2022-11-24T07:31:38.576Z,9.00
2022-11-24T07:32:40.632Z,9.00
2022-11-24T07:33:43.774Z,9.00
2022-11-24T07:34:46.690Z,9.00
2022-11-24T07:35:49.640Z,9.00
2022-11-24T07:36:52.801Z,9.00
2022-11-24T07:37:55.789Z,9.10
2022-11-24T07:38:58.961Z,9.10
2022-11-24T07:40:00.969Z,9.00
2022-11-24T07:41:06.958Z,9.10
2022-11-24T07:42:11.592Z,9.00
2022-11-24T07:43:18.623Z,9.00
2022-11-24T07:44:22.955Z,9.10
2022-11-24T07:45:24.904Z,9.20
2022-11-24T07:46:27.918Z,9.10
2022-11-24T07:47:29.939Z,9.10
2022-11-24T07:48:32.926Z,9.10
2022-11-24T07:49:34.874Z,9.20
2022-11-24T07:50:37.800Z,9.20
2022-11-24T07:51:39.844Z,9.20
2022-11-24T07:52:42.740Z,9.10
2022-11-24T07:53:45.799Z,9.20
2022-11-24T07:54:48.717Z,9.30
2022-11-24T07:55:54.770Z,9.20
2022-11-24T07:56:59.216Z,9.20
2022-11-24T07:58:01.700Z,9.20
2022-11-24T07:59:04.941Z,9.10
2022-11-24T08:00:09.268Z,9.20
2022-11-24T08:01:13.187Z,9.20
2022-11-24T08:02:16.147Z,9.20
2022-11-24T08:03:18.205Z,9.20
2022-11-24T08:04:21.173Z,9.20
2022-11-24T08:05:23.186Z,9.10
2022-11-24T08:06:31.768Z,9.20
2022-11-24T08:07:40.623Z,9.20
2022-11-24T08:08:43.588Z,9.20
2022-11-24T08:09:45.531Z,9.20
2022-11-24T08:10:48.493Z,9.10
2022-11-24T08:11:50.427Z,9.20
2022-11-24T08:12:54.765Z,9.10
2022-11-24T08:13:56.913Z,9.20
2022-11-24T08:14:59.863Z,9.20
2022-11-24T08:16:05.496Z,9.20
2022-11-24T08:17:08.520Z,9.20
2022-11-24T08:18:12.016Z,9.20
2022-11-24T08:19:14.971Z,9.30
2022-11-24T08:20:17.833Z,9.30
2022-11-24T08:21:23.026Z,9.30
2022-11-24T08:22:25.041Z,9.30
2022-11-24T08:23:28.217Z,9.30
2022-11-24T08:24:31.450Z,9.30
2022-11-24T08:25:33.688Z,9.30
2022-11-24T08:26:36.587Z,9.40
2022-11-24T08:27:40.153Z,9.40
2022-11-24T08:28:43.877Z,9.40
2022-11-24T08:29:46.980Z,9.40
2022-11-24T08:30:48.932Z,9.40
2022-11-24T08:31:51.976Z,9.40
2022-11-24T08:32:55.109Z,9.40
2022-11-24T08:33:57.058Z,9.40
2022-11-24T08:35:13.454Z,9.40
2022-11-24T08:36:17.184Z,9.40
2022-11-24T08:37:20.257Z,9.50
2022-11-24T08:38:22.534Z,9.40
2022-11-24T08:39:25.567Z,9.40
2022-11-24T08:40:27.547Z,9.40
2022-11-24T08:41:31.260Z,9.40
2022-11-24T08:42:33.204Z,9.40
2022-11-24T08:43:36.778Z,9.40
2022-11-24T08:44:41.095Z,9.40
2022-11-24T08:45:43.135Z,9.50
2022-11-24T08:46:46.545Z,9.60
2022-11-24T08:47:52.725Z,9.60
2022-11-24T08:48:56.321Z,9.60
2022-11-24T08:49:58.444Z,9.50
2022-11-24T08:51:07.063Z,9.50
2022-11-24T08:52:10.288Z,9.50
2022-11-24T08:53:13.197Z,9.50
2022-11-24T08:54:18.673Z,9.50
2022-11-24T08:55:21.395Z,9.40
2022-11-24T08:56:24.888Z,9.30
2022-11-24T08:57:26.893Z,9.50
2022-11-24T08:58:30.021Z,9.40
2022-11-24T08:59:33.077Z,9.50
2022-11-24T09:00:37.426Z,9.40
2022-11-24T09:01:39.772Z,9.50
2022-11-24T09:02:43.207Z,9.50
2022-11-24T09:03:50.767Z,9.50
2022-11-24T09:04:54.100Z,9.50
2022-11-24T09:05:56.062Z,9.50
2022-11-24T09:07:00.013Z,9.50
2022-11-24T09:08:02.028Z,9.50
2022-11-24T09:09:05.210Z,9.50
2022-11-24T09:10:08.438Z,9.50
2022-11-24T09:11:13.283Z,9.50
2022-11-24T09:12:16.506Z,9.60
2022-11-24T09:13:18.677Z,9.50
2022-11-24T09:14:21.593Z,9.50
2022-11-24T09:15:23.546Z,9.70
2022-11-24T09:16:29.817Z,9.60
2022-11-24T09:17:32.856Z,9.60
2022-11-24T09:18:36.213Z,9.60
2022-11-24T09:19:39.249Z,9.60
2022-11-24T09:20:42.175Z,9.60
2022-11-24T09:21:45.083Z,9.60
2022-11-24T09:22:47.700Z,9.60
2022-11-24T09:23:52.440Z,9.60
2022-11-24T09:24:55.348Z,9.60
2022-11-24T09:26:03.743Z,9.60
2022-11-24T09:27:06.732Z,9.60
2022-11-24T09:28:08.704Z,9.70
2022-11-24T09:29:12.622Z,9.60
2022-11-24T09:30:14.979Z,9.60
2022-11-24T09:31:18.965Z,9.70
2022-11-24T09:32:22.396Z,9.80
2022-11-24T09:33:25.375Z,9.70
2022-11-24T09:34:28.377Z,9.70
2022-11-24T09:35:30.341Z,9.70
2022-11-24T09:36:33.807Z,9.70
2022-11-24T09:37:36.782Z,9.70
2022-11-24T09:38:38.854Z,9.80
2022-11-24T09:39:41.940Z,9.80
2022-11-24T09:40:43.947Z,9.90
2022-11-24T09:42:09.408Z,9.90
2022-11-24T09:43:16.867Z,9.90
2022-11-24T09:44:40.322Z,9.90
2022-11-24T09:46:05.133Z,10.00
2022-11-24T09:47:15.674Z,9.90
2022-11-24T09:48:24.655Z,10.00
2022-11-24T09:49:39.431Z,10.00
2022-11-24T09:50:44.796Z,10.00
2022-11-24T09:51:51.366Z,10.00
2022-11-24T09:53:01.405Z,10.00
2022-11-24T09:54:10.741Z,10.00
2022-11-24T09:55:31.621Z,10.00
2022-11-24T09:56:36.297Z,10.00
2022-11-24T09:57:42.128Z,10.10
2022-11-24T09:58:48.316Z,10.10
2022-11-24T09:59:51.274Z,10.10
2022-11-24T10:00:56.901Z,10.10
2022-11-24T10:02:01.991Z,10.10
2022-11-24T10:03:05.087Z,10.10
2022-11-24T10:04:17.446Z,10.10
2022-11-24T10:05:20.312Z,10.10
2022-11-24T10:06:25.965Z,10.10
2022-11-24T10:07:33.035Z,10.10
2022-11-24T10:08:49.759Z,10.10
2022-11-24T10:10:04.284Z,10.20
2022-11-24T10:11:13.560Z,10.10
2022-11-24T10:12:31.460Z,10.10
2022-11-24T10:13:59.412Z,10.20
2022-11-24T10:15:19.150Z,10.20
2022-11-24T10:16:37.246Z,10.10
2022-11-24T10:17:53.060Z,10.10
2022-11-24T10:19:04.625Z,10.20
2022-11-24T10:20:18.822Z,10.10
2022-11-24T10:21:45.813Z,10.10
2022-11-24T10:23:00.667Z,10.30
2022-11-24T10:24:22.223Z,10.20
2022-11-24T10:25:27.809Z,10.30
2022-11-24T10:26:36.932Z,10.20
2022-11-24T10:27:45.208Z,10.30
2022-11-24T10:28:54.373Z,10.30
2022-11-24T10:29:57.809Z,10.30
2022-11-24T10:31:17.306Z,10.30
2022-11-24T10:32:25.746Z,10.40
2022-11-24T10:33:31.072Z,10.30
2022-11-24T10:34:39.651Z,10.30
2022-11-24T10:35:49.619Z,10.30
2022-11-24T10:36:59.528Z,10.30
2022-11-24T10:38:13.029Z,10.30
2022-11-24T10:39:21.929Z,10.30
2022-11-24T10:40:55.775Z,10.30
2022-11-24T10:42:04.083Z,10.30
2022-11-24T10:43:13.261Z,10.30
2022-11-24T10:44:15.603Z,10.40
2022-11-24T10:45:22.228Z,10.30
2022-11-24T10:46:26.561Z,10.30
2022-11-24T10:47:30.320Z,10.30
2022-11-24T10:48:41.633Z,10.20
2022-11-24T10:49:53.228Z,10.20
2022-11-24T10:51:14.424Z,10.20
2022-11-24T10:52:19.320Z,10.30
2022-11-24T10:53:25.778Z,10.20
2022-11-24T10:54:28.721Z,10.10
2022-11-24T10:55:59.705Z,10.10
2022-11-24T10:57:03.160Z,10.10
2022-11-24T10:58:16.333Z,10.10
2022-11-24T10:59:30.332Z,10.00
2022-11-24T11:00:35.828Z,10.00
2022-11-24T11:01:37.873Z,10.10
2022-11-24T11:02:41.725Z,10.10
2022-11-24T11:03:48.807Z,10.00
2022-11-24T11:04:54.279Z,10.00
2022-11-24T11:06:02.868Z,10.00
2022-11-24T11:07:09.187Z,10.10
2022-11-24T11:08:20.290Z,10.10
2022-11-24T11:09:24.403Z,10.10
2022-11-24T11:10:26.332Z,10.10
2022-11-24T11:11:30.970Z,10.10
2022-11-24T11:12:43.884Z,10.00
2022-11-24T11:14:01.519Z,10.10
2022-11-24T11:15:22.895Z,10.10
2022-11-24T11:16:29.438Z,10.00
2022-11-24T11:17:35.711Z,10.00
2022-11-24T11:18:38.635Z,10.00
2022-11-24T11:19:50.678Z,10.00
2022-11-24T11:20:55.938Z,10.00
2022-11-24T11:22:05.552Z,10.10
2022-11-24T11:23:21.226Z,10.10
2022-11-24T11:24:24.220Z,10.10
2022-11-24T11:25:31.086Z,10.00
2022-11-24T11:26:36.666Z,9.90
2022-11-24T11:27:39.841Z,9.90
2022-11-24T11:28:42.785Z,9.90
2022-11-24T11:31:25.054Z,9.90
2022-11-24T11:34:03.264Z,9.90
2022-11-24T11:35:07.655Z,10.00
2022-11-24T11:36:10.996Z,9.90
2022-11-24T11:37:16.610Z,9.80
2022-11-24T11:38:19.651Z,9.80
2022-11-24T11:39:26.276Z,9.80
2022-11-24T11:40:31.411Z,9.80
2022-11-24T11:41:37.790Z,9.80
2022-11-24T11:43:01.762Z,9.80
2022-11-24T11:44:18.664Z,9.80
2022-11-24T11:45:25.956Z,9.80
2022-11-24T11:46:32.508Z,9.80
2022-11-24T11:47:42.723Z,9.90
2022-11-24T11:48:46.786Z,9.80
2022-11-24T11:49:50.712Z,9.90
2022-11-24T11:51:22.388Z,9.90
2022-11-24T11:52:49.405Z,9.90
2022-11-24T11:54:04.509Z,9.80
2022-11-24T11:55:32.983Z,9.80
2022-11-24T11:56:40.261Z,9.80
2022-11-24T11:57:50.966Z,9.70
2022-11-24T11:59:25.102Z,9.80
2022-11-24T12:00:28.999Z,9.70
2022-11-24T12:01:54.610Z,9.80
2022-11-24T12:03:26.009Z,9.70
2022-11-24T12:04:42.984Z,9.70
2022-11-24T12:05:51.076Z,9.70
2022-11-24T12:07:07.105Z,9.80
2022-11-24T12:08:24.583Z,9.80
2022-11-24T12:09:39.770Z,9.80
2022-11-24T12:10:48.304Z,9.80
2022-11-24T12:12:04.059Z,9.80
2022-11-24T12:13:37.670Z,9.80
2022-11-24T12:14:48.733Z,9.80
2022-11-24T12:15:55.390Z,9.80
2022-11-24T12:17:07.872Z,9.70
2022-11-24T12:18:55.215Z,9.80
2022-11-24T12:20:04.271Z,9.80
2022-11-24T12:21:21.371Z,9.80
2022-11-24T12:22:37.733Z,9.80
2022-11-24T12:23:53.878Z,9.80
2022-11-24T12:25:03.611Z,9.80
2022-11-24T12:26:12.271Z,9.70
2022-11-24T12:27:23.528Z,9.70
2022-11-24T12:28:36.478Z,9.80
2022-11-24T12:29:58.874Z,9.80
2022-11-24T12:31:07.559Z,9.80
2022-11-24T12:32:24.467Z,9.70
2022-11-24T12:34:08.902Z,9.60
2022-11-24T12:35:21.085Z,9.70
2022-11-24T12:36:38.099Z,9.70
2022-11-24T12:37:53.773Z,9.70
2022-11-24T12:39:05.773Z,9.70
2022-11-24T12:40:16.109Z,9.70
2022-11-24T12:41:41.152Z,9.70
2022-11-24T12:42:51.701Z,9.70
2022-11-24T12:43:58.100Z,9.80
2022-11-24T12:45:17.308Z,9.70
2022-11-24T12:46:28.541Z,9.70
2022-11-24T12:47:43.140Z,9.80
2022-11-24T12:48:58.021Z,9.80
2022-11-24T12:50:08.076Z,9.80
2022-11-24T12:51:18.288Z,9.80
2022-11-24T12:52:24.677Z,9.70
2022-11-24T12:53:31.815Z,9.70
2022-11-24T12:54:41.580Z,9.70
2022-11-24T12:55:45.734Z,9.80
2022-11-24T12:56:54.658Z,9.80
2022-11-24T12:58:14.888Z,9.80
2022-11-24T12:59:30.519Z,9.90
2022-11-24T13:00:38.998Z,9.90
2022-11-24T13:01:50.421Z,9.90
2022-11-24T13:03:12.614Z,9.90
2022-11-24T13:04:29.586Z,9.90
2022-11-24T13:05:42.253Z,9.90
2022-11-24T13:06:52.567Z,10.00
2022-11-24T13:07:57.930Z,10.00
2022-11-24T13:09:09.360Z,10.00
2022-11-24T13:10:54.762Z,10.00
2022-11-24T13:12:06.430Z,10.10
2022-11-24T13:13:09.875Z,10.10
2022-11-24T13:14:22.340Z,10.10
2022-11-24T13:15:45.068Z,10.10
2022-11-24T13:17:21.604Z,10.20
2022-11-24T13:18:43.840Z,10.30
2022-11-24T13:19:47.957Z,10.20
2022-11-24T13:20:49.948Z,10.20
2022-11-24T13:22:05.557Z,10.20
2022-11-24T13:23:24.621Z,10.20
2022-11-24T13:24:28.215Z,10.20
2022-11-24T13:25:34.156Z,10.20
2022-11-24T13:26:46.046Z,10.20
2022-11-24T13:27:52.943Z,10.30
2022-11-24T13:29:08.897Z,10.30
2022-11-24T13:30:53.085Z,10.40
2022-11-24T13:31:56.540Z,10.50
2022-11-24T13:33:21.682Z,10.50
2022-11-24T13:35:02.620Z,10.70
2022-11-24T13:36:30.598Z,10.60
2022-11-24T13:37:51.348Z,10.60
2022-11-24T13:38:54.109Z,10.70
2022-11-24T13:39:58.633Z,10.60
2022-11-24T13:41:21.302Z,10.60
2022-11-24T13:42:43.290Z,10.50
2022-11-24T13:44:21.479Z,10.50
2022-11-24T13:45:52.303Z,10.60
2022-11-24T13:47:03.496Z,10.50
2022-11-24T13:49:02.112Z,10.60
2022-11-24T13:50:06.891Z,10.50
2022-11-24T13:51:20.816Z,11.10
2022-11-24T13:52:47.388Z,10.40
2022-11-24T13:53:51.500Z,10.40
2022-11-24T13:54:54.522Z,10.40
2022-11-24T13:56:00.520Z,11.40
2022-11-24T13:57:35.306Z,10.40
2022-11-24T13:58:39.900Z,10.40
2022-11-24T13:59:43.375Z,10.30
2022-11-24T14:01:11.314Z,10.30
2022-11-24T14:02:23.412Z,10.30
2022-11-24T14:03:28.846Z,10.30
2022-11-24T14:04:33.427Z,10.20
2022-11-24T14:05:38.994Z,10.30
2022-11-24T14:06:45.289Z,10.30
2022-11-24T14:07:49.333Z,10.30
2022-11-24T14:08:53.338Z,10.30
2022-11-24T14:09:56.348Z,10.30
2022-11-24T14:11:00.228Z,10.30
2022-11-24T14:12:13.711Z,10.20
2022-11-24T14:13:28.320Z,10.20
2022-11-24T14:14:31.255Z,8.90
2022-11-24T14:15:35.458Z,10.20
2022-11-24T14:16:38.531Z,10.20
2022-11-24T14:17:40.576Z,10.20
2022-11-24T14:18:44.991Z,10.20
2022-11-24T14:19:49.687Z,10.20
2022-11-24T14:20:52.628Z,10.20
2022-11-24T14:21:54.606Z,10.20
2022-11-24T14:22:57.597Z,10.10
2022-11-24T14:24:04.832Z,10.20
2022-11-24T14:25:20.628Z,10.30
2022-11-24T14:26:33.277Z,10.20
2022-11-24T14:27:38.117Z,10.20
2022-11-24T14:28:42.587Z,10.20
2022-11-24T14:29:55.612Z,10.10
2022-11-24T14:31:20.764Z,10.10
2022-11-24T14:32:24.651Z,10.10
2022-11-24T14:33:27.591Z,10.20
2022-11-24T14:34:33.500Z,10.10
2022-11-24T14:35:42.257Z,10.20
2022-11-24T14:36:45.225Z,9.20
2022-11-24T14:37:48.205Z,10.00
2022-11-24T14:38:51.128Z,9.90
2022-11-24T14:39:53.091Z,9.90